createdAt,value
2023-01-06T00:00:35.625Z,15.60
2023-01-06T00:03:02.890Z,17.20
2023-01-06T00:05:29.764Z,23.52
2023-01-06T00:07:56.666Z,15.05
2023-01-06T00:10:23.841Z,19.58
2023-01-06T00:12:51.071Z,25.77
2023-01-06T00:15:18.674Z,24.85
2023-01-06T00:17:46.049Z,18.85
2023-01-06T00:20:13.429Z,19.85
2023-01-06T00:22:40.823Z,24.42
2023-01-06T00:25:10.233Z,12.35
2023-01-06T00:27:37.668Z,16.75
2023-01-06T00:30:05.652Z,13.40
2023-01-06T00:32:32.560Z,15.65
2023-01-06T00:34:59.231Z,14.10
2023-01-06T00:37:25.830Z,13.93
2023-01-06T00:39:52.465Z,19.10
2023-01-06T00:42:19.217Z,15.23
2023-01-06T00:44:45.846Z,19.63
2023-01-06T00:47:12.695Z,12.18
2023-01-06T00:49:39.731Z,9.85
2023-01-06T00:52:06.486Z,16.10
2023-01-06T00:54:33.178Z,19.40
2023-01-06T00:56:59.786Z,26.05
2023-01-06T00:59:26.905Z,15.13
2023-01-06T01:01:55.999Z,14.18
2023-01-06T01:04:24.108Z,14.05
2023-01-06T01:06:53.016Z,16.83
2023-01-06T01:09:24.118Z,19.67
2023-01-06T01:12:06.934Z,16.52
2023-01-06T01:14:33.836Z,25.77
2023-01-06T01:17:00.763Z,19.02
2023-01-06T01:19:28.348Z,25.98
2023-01-06T01:21:54.980Z,20.73
2023-01-06T01:24:21.944Z,15.23
2023-01-06T01:26:48.627Z,18.30
2023-01-06T01:29:17.018Z,32.53
2023-01-06T01:31:44.506Z,13.70
2023-01-06T01:34:12.937Z,14.40
2023-01-06T01:36:42.287Z,19.90
2023-01-06T01:39:10.587Z,22.05
2023-01-06T01:41:37.235Z,15.35
2023-01-06T01:44:34.408Z,13.70
2023-01-06T01:47:01.039Z,19.60
2023-01-06T01:49:32.401Z,14.98
2023-01-06T01:52:02.787Z,16.15
2023-01-06T01:54:36.074Z,14.95
2023-01-06T01:57:08.609Z,21.50
2023-01-06T01:59:37.551Z,14.20
2023-01-06T02:02:04.745Z,17.92
2023-01-06T02:04:34.553Z,14.70
2023-01-06T02:07:02.491Z,22.30
2023-01-06T02:09:39.334Z,18.35
2023-01-06T02:12:06.282Z,14.77
2023-01-06T02:14:32.869Z,20.48
2023-01-06T02:17:05.651Z,16.02
2023-01-06T02:19:48.591Z,20.92
2023-01-06T02:22:46.106Z,16.10
2023-01-06T02:25:43.521Z,22.20
2023-01-06T02:31:08.638Z,16.80
2023-01-06T02:33:47.022Z,14.57
2023-01-06T02:36:33.466Z,19.30
2023-01-06T02:39:05.399Z,13.48
2023-01-06T02:41:41.666Z,13.00
2023-01-06T02:44:20.103Z,20.08
2023-01-06T02:47:10.443Z,17.98
2023-01-06T02:49:38.035Z,21.63
2023-01-06T02:52:16.751Z,17.85
2023-01-06T02:54:50.027Z,11.50
2023-01-06T02:57:44.079Z,15.50
2023-01-06T03:00:16.638Z,15.82
2023-01-06T03:02:49.386Z,19.88
2023-01-06T03:05:17.508Z,13.75
2023-01-06T03:07:46.580Z,11.60
2023-01-06T03:10:16.780Z,17.95
2023-01-06T03:12:51.271Z,18.17
2023-01-06T03:15:17.992Z,19.65
2023-01-06T03:17:45.115Z,10.45
2023-01-06T03:20:13.572Z,18.45
2023-01-06T03:22:41.459Z,17.83
2023-01-06T03:25:09.317Z,14.57
2023-01-06T03:27:36.004Z,12.38
2023-01-06T03:30:09.628Z,9.85
2023-01-06T03:32:37.522Z,13.93
2023-01-06T03:35:20.424Z,16.20
2023-01-06T03:38:02.301Z,17.88
2023-01-06T03:40:42.207Z,13.98
2023-01-06T03:43:40.176Z,23.15
2023-01-06T03:46:27.763Z,11.63
2023-01-06T03:49:01.661Z,13.95
2023-01-06T03:51:39.616Z,21.02
2023-01-06T03:54:10.869Z,21.65
2023-01-06T03:57:04.720Z,8.95
2023-01-06T03:59:34.994Z,14.55
2023-01-06T04:02:02.871Z,13.38
2023-01-06T04:04:29.463Z,18.42
2023-01-06T04:06:56.108Z,18.48
2023-01-06T04:09:22.802Z,18.00
2023-01-06T04:12:04.773Z,17.13
2023-01-06T04:14:31.377Z,15.15
2023-01-06T04:16:57.951Z,20.00
2023-01-06T04:19:24.531Z,21.25
2023-01-06T04:21:51.103Z,12.98
2023-01-06T04:24:17.702Z,10.32
2023-01-06T04:26:44.309Z,11.73
2023-01-06T04:29:10.860Z,13.27
2023-01-06T04:31:37.445Z,21.33
2023-01-06T04:34:04.029Z,10.65
2023-01-06T04:36:31.582Z,19.67
2023-01-06T04:38:58.143Z,11.55
2023-01-06T04:41:24.930Z,18.00
2023-01-06T04:43:51.505Z,10.18
2023-01-06T04:46:18.058Z,8.43
2023-01-06T04:48:44.675Z,13.10
2023-01-06T04:51:11.765Z,15.15
2023-01-06T04:53:40.543Z,13.23
2023-01-06T04:56:09.732Z,13.52
2023-01-06T04:58:37.109Z,22.52
2023-01-06T05:01:06.577Z,18.70
2023-01-06T05:03:33.365Z,12.18
2023-01-06T05:06:02.696Z,20.58
2023-01-06T05:08:30.657Z,10.40
2023-01-06T05:11:14.218Z,15.98
2023-01-06T05:13:41.147Z,21.75
2023-01-06T05:16:09.719Z,17.67
2023-01-06T05:18:37.097Z,23.27
2023-01-06T05:21:03.773Z,19.15
2023-01-06T05:23:30.359Z,13.15
2023-01-06T05:25:56.999Z,12.95
2023-01-06T05:28:23.684Z,12.48
2023-01-06T05:30:50.297Z,18.33
2023-01-06T05:33:16.879Z,15.38
2023-01-06T05:35:43.478Z,20.80
2023-01-06T05:38:10.102Z,24.17
2023-01-06T05:40:36.691Z,12.10
2023-01-06T05:43:03.261Z,16.00
2023-01-06T05:45:29.966Z,18.65
2023-01-06T05:47:58.069Z,10.38
2023-01-06T05:50:24.689Z,14.15
2023-01-06T05:52:54.510Z,20.30
2023-01-06T05:55:24.328Z,16.92
2023-01-06T05:57:50.904Z,23.35
2023-01-06T06:00:17.676Z,17.48
2023-01-06T06:02:44.265Z,14.20
2023-01-06T06:05:10.869Z,21.45
2023-01-06T06:07:37.880Z,19.73
2023-01-06T06:10:05.424Z,24.75
2023-01-06T06:12:32.047Z,43.25
2023-01-06T06:14:58.651Z,23.45
2023-01-06T06:17:25.398Z,22.60
2023-01-06T06:19:52.011Z,22.92
2023-01-06T06:22:19.069Z,21.23
2023-01-06T06:24:45.706Z,22.98
2023-01-06T06:27:12.357Z,19.73
2023-01-06T06:29:38.972Z,20.17
2023-01-06T06:32:05.537Z,25.23
2023-01-06T06:34:32.206Z,14.15
2023-01-06T06:36:58.768Z,25.17
2023-01-06T06:39:25.431Z,16.88
2023-01-06T06:41:52.039Z,34.55
2023-01-06T06:44:18.652Z,26.23
2023-01-06T06:46:45.227Z,18.55
2023-01-06T06:49:11.876Z,20.13
2023-01-06T06:51:38.472Z,23.65
2023-01-06T06:54:05.152Z,25.88
2023-01-06T06:56:31.805Z,23.88
2023-01-06T06:58:58.457Z,36.53
2023-01-06T07:01:25.195Z,22.27
2023-01-06T07:03:51.905Z,25.40
2023-01-06T07:06:22.785Z,30.50
2023-01-06T07:08:49.857Z,31.33
2023-01-06T07:11:16.889Z,32.08
2023-01-06T07:13:43.731Z,29.73
2023-01-06T07:16:12.138Z,24.50
2023-01-06T07:18:39.278Z,29.83
2023-01-06T07:21:06.172Z,21.10
2023-01-06T07:23:33.194Z,25.63
2023-01-06T07:26:01.333Z,17.05
2023-01-06T07:28:29.536Z,27.60
2023-01-06T07:30:56.284Z,22.15
2023-01-06T07:33:24.490Z,25.73
2023-01-06T07:35:53.998Z,31.38
2023-01-06T07:38:21.042Z,24.83
2023-01-06T07:40:48.021Z,21.77
2023-01-06T07:43:14.859Z,25.10
2023-01-06T07:45:41.459Z,34.55
2023-01-06T07:48:09.506Z,33.60
2023-01-06T07:50:36.075Z,46.70
2023-01-06T07:53:03.336Z,33.38
2023-01-06T07:55:31.489Z,28.42
2023-01-06T07:57:58.904Z,37.03
2023-01-06T08:00:26.127Z,23.65
2023-01-06T08:02:53.031Z,27.27
2023-01-06T08:05:19.778Z,32.30
2023-01-06T08:07:46.344Z,25.10
2023-01-06T08:10:12.900Z,26.63
2023-01-06T08:12:39.606Z,29.95
2023-01-06T08:15:06.748Z,48.63
2023-01-06T08:17:33.358Z,34.47
2023-01-06T08:19:59.991Z,24.52
2023-01-06T08:22:26.650Z,40.47
2023-01-06T08:24:53.350Z,31.52
2023-01-06T08:27:20.749Z,33.83
2023-01-06T08:29:50.108Z,31.67
2023-01-06T08:32:17.136Z,29.50
2023-01-06T08:34:43.753Z,33.25
2023-01-06T08:37:10.409Z,32.42
2023-01-06T08:39:36.985Z,46.33
2023-01-06T08:42:03.787Z,42.58
2023-01-06T08:44:30.407Z,46.10
2023-01-06T08:46:57.188Z,56.35
2023-01-06T08:49:23.784Z,62.80
2023-01-06T08:51:50.374Z,70.25
2023-01-06T08:54:17.089Z,90.43
2023-01-06T08:56:44.726Z,86.72
2023-01-06T08:59:15.050Z,95.10
2023-01-06T09:01:42.475Z,96.18
2023-01-06T09:04:10.737Z,102.00
2023-01-06T09:06:38.448Z,113.50
2023-01-06T09:09:07.455Z,106.65
2023-01-06T09:11:34.306Z,93.68
2023-01-06T09:14:01.143Z,89.65
2023-01-06T09:16:27.782Z,77.65
2023-01-06T09:18:54.390Z,67.40
2023-01-06T09:21:23.158Z,66.13
2023-01-06T09:23:50.401Z,61.90
2023-01-06T09:26:18.430Z,56.22
2023-01-06T09:28:45.176Z,60.10
2023-01-06T09:31:12.273Z,60.97
2023-01-06T09:33:39.989Z,53.70
2023-01-06T09:36:07.650Z,62.08
2023-01-06T09:38:34.304Z,70.28
2023-01-06T09:41:31.427Z,66.60
2023-01-06T09:44:10.884Z,79.20
2023-01-06T09:46:40.639Z,66.68
2023-01-06T09:49:19.410Z,60.47
2023-01-06T09:51:46.097Z,57.92
2023-01-06T09:54:16.907Z,45.97
2023-01-06T09:56:53.621Z,46.28
2023-01-06T09:59:27.536Z,44.95
2023-01-06T10:01:55.826Z,46.65
2023-01-06T10:04:27.223Z,42.53
2023-01-06T10:07:20.011Z,38.97
2023-01-06T10:10:10.612Z,37.80
2023-01-06T10:13:03.729Z,46.85
2023-01-06T10:15:48.967Z,34.17
2023-01-06T10:18:26.162Z,34.58
2023-01-06T10:21:16.586Z,31.35
2023-01-06T10:24:11.781Z,44.35
2023-01-06T10:26:43.274Z,39.92
2023-01-06T10:29:18.484Z,35.95
2023-01-06T10:31:47.756Z,35.25
2023-01-06T10:34:21.554Z,34.75
2023-01-06T10:36:57.091Z,34.40
2023-01-06T10:39:27.380Z,32.03
2023-01-06T10:42:39.786Z,31.35
2023-01-06T10:45:11.124Z,33.17
2023-01-06T10:47:37.940Z,25.95
2023-01-06T10:50:05.361Z,25.05
2023-01-06T10:52:33.070Z,31.08
2023-01-06T10:55:04.746Z,24.33
2023-01-06T10:57:36.312Z,22.13
2023-01-06T11:00:12.695Z,22.55
2023-01-06T11:02:46.805Z,21.30
2023-01-06T11:05:16.307Z,27.17
2023-01-06T11:07:51.811Z,19.85
2023-01-06T11:10:27.412Z,23.35
2023-01-06T11:12:57.016Z,27.80
2023-01-06T11:15:29.411Z,19.58
2023-01-06T11:17:56.136Z,31.52
2023-01-06T11:20:22.672Z,21.05
2023-01-06T11:22:49.562Z,23.70
2023-01-06T11:25:30.392Z,26.88
2023-01-06T11:28:12.344Z,21.63
2023-01-06T11:30:52.835Z,24.00
2023-01-06T11:33:22.329Z,16.45
2023-01-06T11:35:50.022Z,18.55
2023-01-06T11:38:19.155Z,23.08
2023-01-06T11:40:48.959Z,24.08
2023-01-06T11:43:19.935Z,18.65
2023-01-06T11:45:53.674Z,24.30
2023-01-06T11:48:20.263Z,19.27
2023-01-06T11:50:57.062Z,20.27
2023-01-06T11:53:25.193Z,22.73
2023-01-06T11:55:57.934Z,21.33
2023-01-06T11:58:36.312Z,20.83
2023-01-06T12:01:38.041Z,24.50
2023-01-06T12:04:12.995Z,22.55
2023-01-06T12:06:42.996Z,24.85
2023-01-06T12:09:28.897Z,27.38
2023-01-06T12:11:59.393Z,32.37
2023-01-06T12:14:31.389Z,43.88
2023-01-06T12:17:04.712Z,39.17
2023-01-06T12:19:46.019Z,47.33
2023-01-06T12:22:23.967Z,45.72
2023-01-06T12:24:52.416Z,43.17
2023-01-06T12:27:30.223Z,48.67
2023-01-06T12:30:01.144Z,40.08
2023-01-06T12:32:36.433Z,53.80
2023-01-06T12:35:05.757Z,47.45
2023-01-06T12:37:33.317Z,52.58
2023-01-06T12:40:21.699Z,51.20
2023-01-06T12:43:18.842Z,44.22
2023-01-06T12:45:57.593Z,45.03
2023-01-06T12:48:25.590Z,34.97
2023-01-06T12:50:57.973Z,35.92
2023-01-06T12:53:28.723Z,34.63
2023-01-06T12:55:56.308Z,33.33
2023-01-06T12:58:31.179Z,30.50
2023-01-06T13:01:09.294Z,28.60
2023-01-06T13:03:35.953Z,32.33
2023-01-06T13:06:32.197Z,35.70
2023-01-06T13:09:15.008Z,25.15
2023-01-06T13:12:03.850Z,28.33
2023-01-06T13:14:59.577Z,26.33
2023-01-06T13:17:44.545Z,32.70
2023-01-06T13:20:31.919Z,34.20
2023-01-06T13:23:10.223Z,28.92
2023-01-06T13:26:04.256Z,32.30
2023-01-06T13:29:05.107Z,30.48
2023-01-06T13:31:48.126Z,27.33
2023-01-06T13:34:39.480Z,29.17
2023-01-06T13:37:34.794Z,30.80
2023-01-06T13:40:18.833Z,22.15
2023-01-06T13:42:53.565Z,23.13
2023-01-06T13:45:32.556Z,22.65
2023-01-06T13:48:00.966Z,25.27
2023-01-06T13:50:28.811Z,19.38
2023-01-06T13:52:56.205Z,21.70
2023-01-06T13:55:30.719Z,22.63
2023-01-06T13:58:35.439Z,22.08
2023-01-06T14:01:07.681Z,21.00
2023-01-06T14:03:35.477Z,27.48
2023-01-06T14:06:04.084Z,20.02
2023-01-06T14:08:36.507Z,17.02
2023-01-06T14:11:06.744Z,18.88
2023-01-06T14:13:41.441Z,15.05
2023-01-06T14:16:14.521Z,17.58
2023-01-06T14:18:45.630Z,15.82
2023-01-06T14:21:13.220Z,15.75
2023-01-06T14:23:50.904Z,20.60
2023-01-06T14:26:17.562Z,16.55
2023-01-06T14:28:44.178Z,15.75
2023-01-06T14:31:25.967Z,16.00
2023-01-06T14:33:57.445Z,18.77
2023-01-06T14:36:26.059Z,22.50
2023-01-06T14:39:01.131Z,24.48
2023-01-06T14:41:48.148Z,20.38
2023-01-06T14:44:18.476Z,20.08
2023-01-06T14:47:02.041Z,22.55
2023-01-06T14:49:44.531Z,20.95
2023-01-06T14:52:18.239Z,19.70
2023-01-06T14:54:47.469Z,22.67
2023-01-06T14:57:29.361Z,26.45
2023-01-06T15:00:12.282Z,25.00
2023-01-06T15:02:45.582Z,24.38
2023-01-06T15:05:30.412Z,29.70
2023-01-06T15:07:58.024Z,25.90
2023-01-06T15:10:26.947Z,27.00
2023-01-06T15:12:57.103Z,31.52
2023-01-06T15:15:30.771Z,26.92
2023-01-06T15:17:59.937Z,34.58
2023-01-06T15:20:39.308Z,32.58
2023-01-06T15:23:06.663Z,38.45
2023-01-06T15:25:37.770Z,31.98
2023-01-06T15:28:04.483Z,32.45
2023-01-06T15:30:34.925Z,31.27
2023-01-06T15:33:02.994Z,39.72
2023-01-06T15:35:31.736Z,40.00
2023-01-06T15:38:04.909Z,31.77
2023-01-06T15:40:32.302Z,34.88
2023-01-06T15:42:59.071Z,33.35
2023-01-06T15:45:32.353Z,32.20
2023-01-06T15:48:02.989Z,30.60
2023-01-06T15:50:31.891Z,34.05
2023-01-06T15:53:04.034Z,35.40
2023-01-06T15:55:34.533Z,40.17
2023-01-06T15:58:04.602Z,33.80
2023-01-06T16:00:41.679Z,35.70
2023-01-06T16:03:18.902Z,29.55
2023-01-06T16:05:50.433Z,30.40
2023-01-06T16:08:25.902Z,32.05
2023-01-06T16:11:46.938Z,37.16
2023-01-06T16:14:28.882Z,31.95
2023-01-06T16:17:10.778Z,34.17
2023-01-06T16:19:45.330Z,37.58
2023-01-06T16:22:26.410Z,34.25
2023-01-06T16:24:53.591Z,33.90
2023-01-06T16:27:25.777Z,33.30
2023-01-06T16:30:09.767Z,27.92
2023-01-06T16:32:40.694Z,34.10
2023-01-06T16:35:13.390Z,29.60
2023-01-06T16:37:40.022Z,27.70
2023-01-06T16:40:07.871Z,28.48
2023-01-06T16:42:41.022Z,26.88
2023-01-06T16:45:28.403Z,22.85
2023-01-06T16:47:55.808Z,18.90
2023-01-06T16:50:38.245Z,26.85
2023-01-06T16:53:21.231Z,25.80
2023-01-06T16:55:57.563Z,21.92
2023-01-06T17:00:54.678Z,23.50
2023-01-06T17:03:24.341Z,23.05
2023-01-06T17:05:52.245Z,22.58
2023-01-06T17:08:27.600Z,27.05
2023-01-06T17:10:54.378Z,22.95
2023-01-06T17:13:36.547Z,23.95
2023-01-06T17:16:26.845Z,23.25
2023-01-06T17:18:56.308Z,21.77
2023-01-06T17:21:28.192Z,21.83
2023-01-06T17:24:02.511Z,24.02
2023-01-06T17:26:29.764Z,26.00
2023-01-06T17:28:58.259Z,27.95
2023-01-06T17:31:35.504Z,32.78
2023-01-06T17:34:12.355Z,34.13
2023-01-06T17:36:41.503Z,31.00
2023-01-06T17:39:25.722Z,34.15
2023-01-06T17:42:01.872Z,31.95
2023-01-06T17:44:35.978Z,25.67
2023-01-06T17:47:11.407Z,28.48
2023-01-06T17:49:38.061Z,23.10
2023-01-06T17:52:14.671Z,26.83
2023-01-06T17:54:56.681Z,27.25
2023-01-06T17:57:27.118Z,28.48
2023-01-06T17:59:57.578Z,31.25
2023-01-06T18:02:42.132Z,26.63
2023-01-06T18:05:30.595Z,25.70
2023-01-06T18:08:06.823Z,27.98
2023-01-06T18:10:35.977Z,27.65
2023-01-06T18:13:29.241Z,28.80
2023-01-06T18:15:58.818Z,26.20
2023-01-06T18:18:33.266Z,26.80
2023-01-06T18:21:29.516Z,31.30
2023-01-06T18:23:56.356Z,24.20
2023-01-06T18:26:37.726Z,25.15
2023-01-06T18:29:22.665Z,25.40
2023-01-06T18:31:51.227Z,26.80
2023-01-06T18:34:26.742Z,26.00
2023-01-06T18:36:55.814Z,24.30
2023-01-06T18:39:37.750Z,26.73
2023-01-06T18:42:19.557Z,23.77
2023-01-06T18:44:46.857Z,26.20
2023-01-06T18:47:20.072Z,28.30
2023-01-06T18:49:47.584Z,23.55
2023-01-06T18:52:36.802Z,23.60
2023-01-06T18:55:15.246Z,22.38
2023-01-06T18:57:45.894Z,24.98
2023-01-06T19:00:30.946Z,22.77
2023-01-06T19:03:14.495Z,24.67
2023-01-06T19:05:42.197Z,23.58
2023-01-06T19:08:21.714Z,24.35
2023-01-06T19:10:49.886Z,24.10
2023-01-06T19:13:24.579Z,22.55
2023-01-06T19:15:51.348Z,23.80
2023-01-06T19:18:19.791Z,22.52
2023-01-06T19:20:47.368Z,21.85
2023-01-06T19:23:18.556Z,22.73
2023-01-06T19:25:50.410Z,21.33
2023-01-06T19:28:22.057Z,21.92
2023-01-06T19:30:50.772Z,22.80
2023-01-06T19:33:35.427Z,20.00
2023-01-06T19:36:27.801Z,19.98
2023-01-06T19:38:54.668Z,22.52
2023-01-06T19:41:29.947Z,22.42
2023-01-06T19:44:08.229Z,19.08
2023-01-06T19:46:38.766Z,21.10
2023-01-06T19:49:20.801Z,21.65
2023-01-06T19:51:49.757Z,23.42
2023-01-06T19:54:25.192Z,25.98
2023-01-06T19:56:52.999Z,23.97
2023-01-06T19:59:29.316Z,24.08
2023-01-06T20:04:27.137Z,22.10
2023-01-06T20:06:54.194Z,16.80
2023-01-06T20:09:21.949Z,21.50
2023-01-06T20:11:50.545Z,21.35
2023-01-06T20:14:18.219Z,17.33
2023-01-06T20:16:45.571Z,15.10
2023-01-06T20:19:13.202Z,16.13
2023-01-06T20:21:40.304Z,17.35
2023-01-06T20:24:08.054Z,13.20
2023-01-06T20:26:34.805Z,19.17
2023-01-06T20:29:02.445Z,15.27
2023-01-06T20:31:29.096Z,14.63
2023-01-06T20:33:55.834Z,16.33
2023-01-06T20:36:22.784Z,16.17
2023-01-06T20:38:49.430Z,20.83
2023-01-06T20:41:16.169Z,26.17
2023-01-06T20:43:42.798Z,22.20
2023-01-06T20:46:09.451Z,25.00
2023-01-06T20:48:36.228Z,24.40
2023-01-06T20:51:02.843Z,23.73
2023-01-06T20:53:29.417Z,21.58
2023-01-06T20:55:56.048Z,22.05
2023-01-06T20:58:22.674Z,22.80
2023-01-06T21:00:49.409Z,22.85
2023-01-06T21:03:16.310Z,22.00
2023-01-06T21:05:42.958Z,120.28
2023-01-06T21:08:09.566Z,31.95
2023-01-06T21:10:37.325Z,28.88
2023-01-06T21:13:04.182Z,18.70
2023-01-06T21:15:30.810Z,17.10
2023-01-06T21:17:57.431Z,15.88
2023-01-06T21:20:24.175Z,19.13
2023-01-06T21:23:03.779Z,15.40
2023-01-06T21:25:44.057Z,16.25
2023-01-06T21:28:30.762Z,17.65
2023-01-06T21:31:35.743Z,17.67
2023-01-06T21:34:42.788Z,16.57
2023-01-06T21:37:49.765Z,22.17
2023-01-06T21:40:49.886Z,21.83
2023-01-06T21:43:56.744Z,18.70
2023-01-06T21:47:04.775Z,20.33
2023-01-06T21:49:41.878Z,16.70
2023-01-06T21:52:10.941Z,16.15
2023-01-06T21:54:37.625Z,18.10
2023-01-06T21:57:04.620Z,13.10
2023-01-06T21:59:35.479Z,18.48
2023-01-06T22:02:06.064Z,17.20
2023-01-06T22:04:33.685Z,19.23
2023-01-06T22:07:04.180Z,20.08
2023-01-06T22:09:31.713Z,18.65
2023-01-06T22:12:00.312Z,15.75
2023-01-06T22:14:27.066Z,14.10
2023-01-06T22:16:54.775Z,22.05
2023-01-06T22:19:21.618Z,20.25
2023-01-06T22:21:48.244Z,19.75
2023-01-06T22:24:17.457Z,18.65
2023-01-06T22:26:44.058Z,18.08
2023-01-06T22:29:11.102Z,15.75
2023-01-06T22:31:37.698Z,16.38
2023-01-06T22:34:06.621Z,18.67
2023-01-06T22:36:33.241Z,20.10
2023-01-06T22:38:59.834Z,21.85
2023-01-06T22:41:26.490Z,18.02
2023-01-06T22:43:53.222Z,18.55
2023-01-06T22:46:20.506Z,17.70
2023-01-06T22:48:47.234Z,18.70
2023-01-06T22:51:14.028Z,16.70
2023-01-06T22:53:40.782Z,16.05
2023-01-06T22:56:09.953Z,16.60
2023-01-06T22:58:38.808Z,18.60
2023-01-06T23:01:06.871Z,21.30
2023-01-06T23:03:34.455Z,22.27
2023-01-06T23:06:07.769Z,19.70
2023-01-06T23:08:38.861Z,16.30
2023-01-06T23:11:10.255Z,23.45
2023-01-06T23:13:38.478Z,21.67
2023-01-06T23:16:08.574Z,25.60
2023-01-06T23:18:37.157Z,20.63
2023-01-06T23:21:06.828Z,17.42
2023-01-06T23:23:34.774Z,19.15
2023-01-06T23:26:03.620Z,17.48
2023-01-06T23:28:30.631Z,19.02
2023-01-06T23:31:02.462Z,19.25
2023-01-06T23:33:29.552Z,18.05
2023-01-06T23:36:00.433Z,24.77
2023-01-06T23:38:27.485Z,18.17
2023-01-06T23:40:59.962Z,19.42
2023-01-06T23:43:26.995Z,18.88
2023-01-06T23:45:59.978Z,20.77
2023-01-06T23:48:28.088Z,21.08
2023-01-06T23:50:54.710Z,19.50
2023-01-06T23:53:21.546Z,21.73
2023-01-06T23:55:58.631Z,19.02
2023-01-06T23:58:27.759Z,17.58
